sensor_id;sensor_type;location;lat;lon;timestamp;pressure;altitude;pressure_sealevel;temperature;humidity
46045;BME280;31781;54.094;13.428;2023-08-20T00:00:46;102000.75;;;21.72;80.10
46045;BME280;31781;54.094;13.428;2023-08-20T00:02:49;101982.75;;;21.75;80.25
46045;BME280;31781;54.094;13.428;2023-08-20T00:04:53;101960.09;;;21.78;80.94
46045;BME280;31781;54.094;13.428;2023-08-20T00:07:01;101966.47;;;21.78;81.01
46045;BME280;31781;54.094;13.428;2023-08-20T00:09:03;101982.59;;;21.81;80.55
46045;BME280;31781;54.094;13.428;2023-08-20T00:11:04;101987.88;;;21.83;80.70
46045;BME280;31781;54.094;13.428;2023-08-20T00:13:06;101978.47;;;21.84;80.21
46045;BME280;31781;54.094;13.428;2023-08-20T00:15:08;101974.59;;;21.85;79.95
46045;BME280;31781;54.094;13.428;2023-08-20T00:17:10;101987.38;;;21.86;80.24
46045;BME280;31781;54.094;13.428;2023-08-20T00:19:12;102000.13;;;21.87;80.23
46045;BME280;31781;54.094;13.428;2023-08-20T00:21:15;101999.88;;;21.89;79.90
46045;BME280;31781;54.094;13.428;2023-08-20T00:23:18;102000.50;;;21.91;80.33
46045;BME280;31781;54.094;13.428;2023-08-20T00:25:20;102006.88;;;21.91;80.82
46045;BME280;31781;54.094;13.428;2023-08-20T00:27:22;102013.00;;;21.93;80.40
46045;BME280;31781;54.094;13.428;2023-08-20T00:29:24;101992.53;;;21.94;80.90
46045;BME280;31781;54.094;13.428;2023-08-20T00:31:26;101998.63;;;21.96;80.46
46045;BME280;31781;54.094;13.428;2023-08-20T00:33:28;102004.19;;;21.96;80.09
46045;BME280;31781;54.094;13.428;2023-08-20T00:35:29;102006.72;;;21.98;79.96
46045;BME280;31781;54.094;13.428;2023-08-20T00:37:31;102007.56;;;21.98;80.50
46045;BME280;31781;54.094;13.428;2023-08-20T00:39:35;102002.84;;;21.99;79.80
46045;BME280;31781;54.094;13.428;2023-08-20T00:41:37;101999.22;;;21.98;79.41
46045;BME280;31781;54.094;13.428;2023-08-20T00:43:38;101996.19;;;22.00;79.42
46045;BME280;31781;54.094;13.428;2023-08-20T00:45:41;102000.88;;;21.99;79.09
46045;BME280;31781;54.094;13.428;2023-08-20T00:47:43;101993.41;;;22.00;79.82
46045;BME280;31781;54.094;13.428;2023-08-20T00:49:45;101985.94;;;22.00;80.24
46045;BME280;31781;54.094;13.428;2023-08-20T00:51:47;101987.63;;;22.01;79.69
46045;BME280;31781;54.094;13.428;2023-08-20T00:53:49;101988.47;;;22.02;80.18
46045;BME280;31781;54.094;13.428;2023-08-20T00:55:52;101994.88;;;22.02;80.34
46045;BME280;31781;54.094;13.428;2023-08-20T00:57:54;101992.91;;;22.03;79.86
46045;BME280;31781;54.094;13.428;2023-08-20T00:59:56;101994.88;;;22.02;79.90
46045;BME280;31781;54.094;13.428;2023-08-20T01:01:58;102001.81;;;22.05;79.40
46045;BME280;31781;54.094;13.428;2023-08-20T01:03:59;101997.13;;;22.05;80.08
46045;BME280;31781;54.094;13.428;2023-08-20T01:06:09;101995.75;;;22.08;79.22
46045;BME280;31781;54.094;13.428;2023-08-20T01:08:24;101988.53;;;22.07;78.28
46045;BME280;31781;54.094;13.428;2023-08-20T01:10:36;101990.22;;;22.08;79.31
46045;BME280;31781;54.094;13.428;2023-08-20T01:12:43;101987.69;;;22.06;79.27
46045;BME280;31781;54.094;13.428;2023-08-20T01:14:45;101989.88;;;22.04;78.83
46045;BME280;31781;54.094;13.428;2023-08-20T01:16:47;101994.34;;;22.05;79.00
46045;BME280;31781;54.094;13.428;2023-08-20T01:18:49;101983.78;;;22.02;79.02
46045;BME280;31781;54.094;13.428;2023-08-20T01:20:56;101966.31;;;22.02;78.40
46045;BME280;31781;54.094;13.428;2023-08-20T01:25:50;101979.00;;;21.98;77.97
46045;BME280;31781;54.094;13.428;2023-08-20T01:30:10;101978.06;;;21.92;79.52
46045;BME280;31781;54.094;13.428;2023-08-20T01:32:13;101981.09;;;21.91;79.07
46045;BME280;31781;54.094;13.428;2023-08-20T01:34:16;101975.78;;;21.89;79.29
46045;BME280;31781;54.094;13.428;2023-08-20T01:36:17;101966.88;;;21.87;79.88
46045;BME280;31781;54.094;13.428;2023-08-20T01:41:23;101966.28;;;21.85;79.18
46045;BME280;31781;54.094;13.428;2023-08-20T01:43:25;101964.88;;;21.82;79.52
46045;BME280;31781;54.094;13.428;2023-08-20T01:45:28;101961.50;;;21.80;79.76
46045;BME280;31781;54.094;13.428;2023-08-20T01:47:30;101961.78;;;21.79;80.47
46045;BME280;31781;54.094;13.428;2023-08-20T01:49:31;101955.91;;;21.75;80.44
46045;BME280;31781;54.094;13.428;2023-08-20T01:51:33;101967.22;;;21.74;79.76
46045;BME280;31781;54.094;13.428;2023-08-20T01:53:34;101966.38;;;21.73;80.26
46045;BME280;31781;54.094;13.428;2023-08-20T01:55:36;101964.97;;;21.71;79.80
46045;BME280;31781;54.094;13.428;2023-08-20T01:57:38;101974.38;;;21.70;79.88
46045;BME280;31781;54.094;13.428;2023-08-20T01:59:40;101972.72;;;21.69;79.75
46045;BME280;31781;54.094;13.428;2023-08-20T02:01:43;101974.03;;;21.66;80.27
46045;BME280;31781;54.094;13.428;2023-08-20T02:03:44;101973.19;;;21.66;80.64
46045;BME280;31781;54.094;13.428;2023-08-20T02:05:46;101967.06;;;21.64;80.46
46045;BME280;31781;54.094;13.428;2023-08-20T02:07:48;101967.31;;;21.62;80.99
46045;BME280;31781;54.094;13.428;2023-08-20T02:09:49;101974.78;;;21.62;80.90
46045;BME280;31781;54.094;13.428;2023-08-20T02:11:52;101977.81;;;21.60;80.55
46045;BME280;31781;54.094;13.428;2023-08-20T02:13:54;101974.22;;;21.60;81.23
46045;BME280;31781;54.094;13.428;2023-08-20T02:15:59;101982.53;;;21.60;80.19
46045;BME280;31781;54.094;13.428;2023-08-20T02:18:03;101973.63;;;21.58;80.50
46045;BME280;31781;54.094;13.428;2023-08-20T02:20:06;101977.50;;;21.57;80.43
46045;BME280;31781;54.094;13.428;2023-08-20T02:22:08;101969.41;;;21.55;81.02
46045;BME280;31781;54.094;13.428;2023-08-20T02:24:10;101969.41;;;21.55;80.30
46045;BME280;31781;54.094;13.428;2023-08-20T02:26:11;101980.50;;;21.55;81.08
46045;BME280;31781;54.094;13.428;2023-08-20T02:28:13;101971.34;;;21.55;80.63
46045;BME280;31781;54.094;13.428;2023-08-20T02:30:15;101972.47;;;21.54;80.57
46045;BME280;31781;54.094;13.428;2023-08-20T02:32:16;101966.31;;;21.52;80.87
46045;BME280;31781;54.094;13.428;2023-08-20T02:34:19;101968.84;;;21.53;81.05
46045;BME280;31781;54.094;13.428;2023-08-20T02:36:21;101972.69;;;21.52;80.86
46045;BME280;31781;54.094;13.428;2023-08-20T02:38:23;101976.56;;;21.51;80.83
46045;BME280;31781;54.094;13.428;2023-08-20T02:40:25;101979.59;;;21.50;80.27
46045;BME280;31781;54.094;13.428;2023-08-20T02:42:26;101979.59;;;21.50;80.71
46045;BME280;31781;54.094;13.428;2023-08-20T02:44:28;101992.31;;;21.51;80.50
46045;BME280;31781;54.094;13.428;2023-08-20T02:46:30;101992.59;;;21.49;79.89
46045;BME280;31781;54.094;13.428;2023-08-20T02:48:32;101993.16;;;21.51;79.91
46045;BME280;31781;54.094;13.428;2023-08-20T02:50:35;101992.09;;;21.52;79.86
46045;BME280;31781;54.094;13.428;2023-08-20T02:52:37;101996.78;;;21.52;79.40
46045;BME280;31781;54.094;13.428;2023-08-20T02:54:38;101991.25;;;21.52;79.96
46045;BME280;31781;54.094;13.428;2023-08-20T02:56:40;101992.31;;;21.51;79.59
46045;BME280;31781;54.094;13.428;2023-08-20T02:58:42;102000.41;;;21.52;79.99
46045;BME280;31781;54.094;13.428;2023-08-20T03:00:44;102004.00;;;21.53;80.05
46045;BME280;31781;54.094;13.428;2023-08-20T03:02:46;102007.63;;;21.53;80.21
46045;BME280;31781;54.094;13.428;2023-08-20T03:04:47;102008.47;;;21.54;79.94
46045;BME280;31781;54.094;13.428;2023-08-20T03:06:50;102008.69;;;21.52;79.86
46045;BME280;31781;54.094;13.428;2023-08-20T03:08:52;102009.53;;;21.53;79.81
46045;BME280;31781;54.094;13.428;2023-08-20T03:10:54;102006.78;;;21.53;79.41
46045;BME280;31781;54.094;13.428;2023-08-20T03:12:56;102013.16;;;21.53;79.21
46045;BME280;31781;54.094;13.428;2023-08-20T03:14:58;102014.25;;;21.52;79.57
46045;BME280;31781;54.094;13.428;2023-08-20T03:17:00;102022.56;;;21.52;79.44
46045;BME280;31781;54.094;13.428;2023-08-20T03:19:03;102022.78;;;21.51;80.12
46045;BME280;31781;54.094;13.428;2023-08-20T03:21:05;102024.75;;;21.50;79.64
46045;BME280;31781;54.094;13.428;2023-08-20T03:23:08;102022.22;;;21.49;79.71
46045;BME280;31781;54.094;13.428;2023-08-20T03:25:10;102019.69;;;21.47;79.57
46045;BME280;31781;54.094;13.428;2023-08-20T03:27:12;102028.84;;;21.48;80.10
46045;BME280;31781;54.094;13.428;2023-08-20T03:29:14;102027.19;;;21.47;80.29
46045;BME280;31781;54.094;13.428;2023-08-20T03:31:16;102022.72;;;21.46;81.04
46045;BME280;31781;54.094;13.428;2023-08-20T03:33:18;102025.72;;;21.44;80.91
46045;BME280;31781;54.094;13.428;2023-08-20T03:35:20;102026.56;;;21.45;80.60
46045;BME280;31781;54.094;13.428;2023-08-20T03:37:21;102033.19;;;21.44;80.76
46045;BME280;31781;54.094;13.428;2023-08-20T03:39:25;102031.25;;;21.44;81.29
46045;BME280;31781;54.094;13.428;2023-08-20T03:41:27;102030.69;;;21.42;81.36
46045;BME280;31781;54.094;13.428;2023-08-20T03:43:29;102040.69;;;21.43;81.44
46045;BME280;31781;54.094;13.428;2023-08-20T03:45:30;102037.06;;;21.43;81.29
46045;BME280;31781;54.094;13.428;2023-08-20T03:47:32;102044.53;;;21.42;81.61
46045;BME280;31781;54.094;13.428;2023-08-20T03:49:35;102039.84;;;21.43;81.73
46045;BME280;31781;54.094;13.428;2023-08-20T03:51:37;102046.47;;;21.42;81.81
46045;BME280;31781;54.094;13.428;2023-08-20T03:53:38;102035.38;;;21.42;81.38
46045;BME280;31781;54.094;13.428;2023-08-20T03:55:41;102042.59;;;21.43;82.11
46045;BME280;31781;54.094;13.428;2023-08-20T03:57:43;102046.47;;;21.42;81.54
46045;BME280;31781;54.094;13.428;2023-08-20T03:59:45;102052.84;;;21.42;82.27
46045;BME280;31781;54.094;13.428;2023-08-20T04:01:46;102049.22;;;21.42;81.82
46045;BME280;31781;54.094;13.428;2023-08-20T04:03:48;102052.00;;;21.42;82.17
46045;BME280;31781;54.094;13.428;2023-08-20T04:05:50;102057.53;;;21.42;82.62
46045;BME280;31781;54.094;13.428;2023-08-20T04:07:51;102063.06;;;21.42;82.65
46045;BME280;31781;54.094;13.428;2023-08-20T04:09:53;102055.59;;;21.42;82.25
46045;BME280;31781;54.094;13.428;2023-08-20T04:11:56;102060.31;;;21.42;82.83
46045;BME280;31781;54.094;13.428;2023-08-20T04:13:58;102055.84;;;21.41;82.44
46045;BME280;31781;54.094;13.428;2023-08-20T04:16:00;102055.00;;;21.40;82.36
46045;BME280;31781;54.094;13.428;2023-08-20T04:18:03;102056.94;;;21.40;82.66
46045;BME280;31781;54.094;13.428;2023-08-20T04:20:06;102051.38;;;21.40;82.95
46045;BME280;31781;54.094;13.428;2023-08-20T04:22:08;102058.88;;;21.39;82.34
46045;BME280;31781;54.094;13.428;2023-08-20T04:24:09;102057.78;;;21.40;83.00
46045;BME280;31781;54.094;13.428;2023-08-20T04:26:11;102066.91;;;21.41;82.37
46045;BME280;31781;54.094;13.428;2023-08-20T04:28:14;102065.22;;;21.40;82.65
46045;BME280;31781;54.094;13.428;2023-08-20T04:30:16;102063.31;;;21.40;82.55
46045;BME280;31781;54.094;13.428;2023-08-20T04:32:18;102067.19;;;21.39;83.08
46045;BME280;31781;54.094;13.428;2023-08-20T04:34:22;102070.78;;;21.40;83.19
46045;BME280;31781;54.094;13.428;2023-08-20T04:36:24;102072.47;;;21.41;83.11
46045;BME280;31781;54.094;13.428;2023-08-20T04:38:26;102073.31;;;21.41;83.17
46045;BME280;31781;54.094;13.428;2023-08-20T04:40:28;102070.53;;;21.41;83.30
46045;BME280;31781;54.094;13.428;2023-08-20T04:42:30;102078.00;;;21.41;83.08
46045;BME280;31781;54.094;13.428;2023-08-20T04:44:33;102083.53;;;21.41;83.41
46045;BME280;31781;54.094;13.428;2023-08-20T04:46:37;102077.75;;;21.42;83.64
46045;BME280;31781;54.094;13.428;2023-08-20T04:48:39;102082.22;;;21.43;83.32
46045;BME280;31781;54.094;13.428;2023-08-20T04:50:41;102080.25;;;21.44;83.16
46045;BME280;31781;54.094;13.428;2023-08-20T04:52:43;102081.09;;;21.44;83.05
46045;BME280;31781;54.094;13.428;2023-08-20T04:54:44;102081.94;;;21.45;82.53
46045;BME280;31781;54.094;13.428;2023-08-20T04:56:46;102079.78;;;21.47;83.22
46045;BME280;31781;54.094;13.428;2023-08-20T04:58:48;102093.38;;;21.48;83.36
46045;BME280;31781;54.094;13.428;2023-08-20T05:00:51;102092.53;;;21.48;82.88
46045;BME280;31781;54.094;13.428;2023-08-20T05:02:52;102089.53;;;21.49;82.98
46045;BME280;31781;54.094;13.428;2023-08-20T05:04:54;102092.28;;;21.49;83.65
46045;BME280;31781;54.094;13.428;2023-08-20T05:06:56;102095.06;;;21.49;83.17
46045;BME280;31781;54.094;13.428;2023-08-20T05:08:58;102087.59;;;21.50;83.70
46045;BME280;31781;54.094;13.428;2023-08-20T05:10:59;102091.22;;;21.50;82.69
46045;BME280;31781;54.094;13.428;2023-08-20T05:13:01;102093.97;;;21.50;83.55
46045;BME280;31781;54.094;13.428;2023-08-20T05:15:04;102090.94;;;21.52;83.12
46045;BME280;31781;54.094;13.428;2023-08-20T05:17:07;102097.31;;;21.52;83.04
46045;BME280;31781;54.094;13.428;2023-08-20T05:19:10;102096.25;;;21.53;83.29
46045;BME280;31781;54.094;13.428;2023-08-20T05:21:12;102101.78;;;21.53;83.63
46045;BME280;31781;54.094;13.428;2023-08-20T05:23:15;102089.00;;;21.52;83.10
46045;BME280;31781;54.094;13.428;2023-08-20T05:25:16;102098.75;;;21.55;82.82
46045;BME280;31781;54.094;13.428;2023-08-20T05:27:18;102094.31;;;21.54;83.18
46045;BME280;31781;54.094;13.428;2023-08-20T05:29:20;102097.94;;;21.54;83.35
46045;BME280;31781;54.094;13.428;2023-08-20T05:31:21;102092.97;;;21.56;83.46
46045;BME280;31781;54.094;13.428;2023-08-20T05:33:25;102094.91;;;21.56;82.93
46045;BME280;31781;54.094;13.428;2023-08-20T05:35:27;102086.59;;;21.56;83.51
46045;BME280;31781;54.094;13.428;2023-08-20T05:37:28;102091.63;;;21.59;83.48
46045;BME280;31781;54.094;13.428;2023-08-20T05:39:35;102094.38;;;21.59;83.91
46045;BME280;31781;54.094;13.428;2023-08-20T05:41:37;102096.94;;;21.60;83.61
46045;BME280;31781;54.094;13.428;2023-08-20T05:43:39;102098.84;;;21.60;83.19
46045;BME280;31781;54.094;13.428;2023-08-20T05:45:41;102093.31;;;21.60;83.75
46045;BME280;31781;54.094;13.428;2023-08-20T05:47:43;102093.31;;;21.60;83.51
46045;BME280;31781;54.094;13.428;2023-08-20T05:49:46;102098.00;;;21.59;84.12
46045;BME280;31781;54.094;13.428;2023-08-20T05:51:48;102097.78;;;21.61;84.11
46045;BME280;31781;54.094;13.428;2023-08-20T05:53:49;102099.44;;;21.62;83.98
46045;BME280;31781;54.094;13.428;2023-08-20T05:55:51;102103.88;;;21.63;83.34
46045;BME280;31781;54.094;13.428;2023-08-20T05:57:53;102095.34;;;21.64;83.69
46045;BME280;31781;54.094;13.428;2023-08-20T05:59:54;102102.56;;;21.65;83.83
46045;BME280;31781;54.094;13.428;2023-08-20T06:01:57;102091.50;;;21.65;84.23
46045;BME280;31781;54.094;13.428;2023-08-20T06:03:59;102100.13;;;21.69;84.10
46045;BME280;31781;54.094;13.428;2023-08-20T06:06:02;102099.88;;;21.70;83.59
46045;BME280;31781;54.094;13.428;2023-08-20T06:08:07;102095.16;;;21.71;83.70
46045;BME280;31781;54.094;13.428;2023-08-20T06:10:09;102097.69;;;21.72;83.90
46045;BME280;31781;54.094;13.428;2023-08-20T06:12:11;102097.44;;;21.74;83.73
46045;BME280;31781;54.094;13.428;2023-08-20T06:14:12;102104.66;;;21.75;83.76
46045;BME280;31781;54.094;13.428;2023-08-20T06:16:14;102112.13;;;21.74;83.57
46045;BME280;31781;54.094;13.428;2023-08-20T06:20:17;102108.00;;;21.77;84.22
46045;BME280;31781;54.094;13.428;2023-08-20T06:22:21;102105.00;;;21.78;83.93
46045;BME280;31781;54.094;13.428;2023-08-20T06:24:22;102107.53;;;21.80;84.23
46045;BME280;31781;54.094;13.428;2023-08-20T06:26:24;102123.88;;;21.81;83.69
46045;BME280;31781;54.094;13.428;2023-08-20T06:28:26;102115.00;;;21.79;84.03
46045;BME280;31781;54.094;13.428;2023-08-20T06:30:28;102125.59;;;21.82;83.74
46045;BME280;31781;54.094;13.428;2023-08-20T06:32:29;102125.31;;;21.84;83.44
46045;BME280;31781;54.094;13.428;2023-08-20T06:34:33;102128.94;;;21.84;84.55
46045;BME280;31781;54.094;13.428;2023-08-20T06:36:35;102133.63;;;21.84;84.07
46045;BME280;31781;54.094;13.428;2023-08-20T06:38:38;102137.00;;;21.86;84.27
46045;BME280;31781;54.094;13.428;2023-08-20T06:40:39;102133.16;;;21.87;84.20
46045;BME280;31781;54.094;13.428;2023-08-20T06:42:41;102144.81;;;21.89;84.39
46045;BME280;31781;54.094;13.428;2023-08-20T06:44:43;102140.09;;;21.90;83.93
46045;BME280;31781;54.094;13.428;2023-08-20T06:46:45;102144.59;;;21.91;83.79
46045;BME280;31781;54.094;13.428;2023-08-20T06:48:47;102147.09;;;21.92;83.73
46045;BME280;31781;54.094;13.428;2023-08-20T06:50:48;102146.88;;;21.94;84.33
46045;BME280;31781;54.094;13.428;2023-08-20T06:52:50;102137.47;;;21.95;84.15
46045;BME280;31781;54.094;13.428;2023-08-20T06:54:53;102145.50;;;21.96;83.71
46045;BME280;31781;54.094;13.428;2023-08-20T06:56:55;102153.31;;;21.99;84.51
46045;BME280;31781;54.094;13.428;2023-08-20T06:58:57;102146.69;;;22.00;84.13
46045;BME280;31781;54.094;13.428;2023-08-20T07:00:59;102141.50;;;22.04;84.93
46045;BME280;31781;54.094;13.428;2023-08-20T07:03:00;102144.03;;;22.05;84.68
46045;BME280;31781;54.094;13.428;2023-08-20T07:05:02;102140.75;;;22.08;83.70
46045;BME280;31781;54.094;13.428;2023-08-20T07:07:04;102141.31;;;22.10;83.83
46045;BME280;31781;54.094;13.428;2023-08-20T07:09:06;102139.16;;;22.12;83.45
46045;BME280;31781;54.094;13.428;2023-08-20T07:11:09;102138.88;;;22.14;83.53
46045;BME280;31781;54.094;13.428;2023-08-20T07:13:10;102137.78;;;22.15;83.68
46045;BME280;31781;54.094;13.428;2023-08-20T07:15:12;102140.06;;;22.18;83.24
46045;BME280;31781;54.094;13.428;2023-08-20T07:17:13;102141.75;;;22.19;82.74
46045;BME280;31781;54.094;13.428;2023-08-20T07:19:15;102138.75;;;22.20;82.42
46045;BME280;31781;54.094;13.428;2023-08-20T07:21:17;102145.69;;;22.23;82.77
46045;BME280;31781;54.094;13.428;2023-08-20T07:23:19;102147.38;;;22.24;82.05
46045;BME280;31781;54.094;13.428;2023-08-20T07:25:20;102143.78;;;22.23;81.98
46045;BME280;31781;54.094;13.428;2023-08-20T07:27:23;102152.94;;;22.24;82.50
46045;BME280;31781;54.094;13.428;2023-08-20T07:29:25;102145.19;;;22.26;82.51
46045;BME280;31781;54.094;13.428;2023-08-20T07:31:28;102153.50;;;22.26;81.83
46045;BME280;31781;54.094;13.428;2023-08-20T07:33:30;102160.97;;;22.25;81.61
46045;BME280;31781;54.094;13.428;2023-08-20T07:35:32;102155.44;;;22.25;81.22
46045;BME280;31781;54.094;13.428;2023-08-20T07:37:34;102157.38;;;22.25;81.42
46045;BME280;31781;54.094;13.428;2023-08-20T07:39:36;102156.56;;;22.24;81.24
46045;BME280;31781;54.094;13.428;2023-08-20T07:41:38;102160.97;;;22.25;81.78
46045;BME280;31781;54.094;13.428;2023-08-20T07:43:41;102152.66;;;22.25;80.98
46045;BME280;31781;54.094;13.428;2023-08-20T07:45:43;102157.13;;;22.26;81.59
46045;BME280;31781;54.094;13.428;2023-08-20T07:47:44;102152.16;;;22.28;82.10
46045;BME280;31781;54.094;13.428;2023-08-20T07:49:46;102152.75;;;22.30;81.90
46045;BME280;31781;54.094;13.428;2023-08-20T07:51:48;102157.22;;;22.31;82.15
46045;BME280;31781;54.094;13.428;2023-08-20T07:53:50;102163.34;;;22.33;82.09
46045;BME280;31781;54.094;13.428;2023-08-20T07:55:51;102160.06;;;22.37;81.51
46045;BME280;31781;54.094;13.428;2023-08-20T07:57:54;102148.72;;;22.38;82.04
46045;BME280;31781;54.094;13.428;2023-08-20T07:59:57;102164.84;;;22.41;81.63
46045;BME280;31781;54.094;13.428;2023-08-20T08:01:59;102164.34;;;22.44;81.52
46045;BME280;31781;54.094;13.428;2023-08-20T08:04:00;102159.38;;;22.46;80.74
46045;BME280;31781;54.094;13.428;2023-08-20T08:06:02;102155.25;;;22.49;81.16
46045;BME280;31781;54.094;13.428;2023-08-20T08:08:04;102164.16;;;22.51;80.76
46045;BME280;31781;54.094;13.428;2023-08-20T08:10:07;102168.38;;;22.53;80.08
46045;BME280;31781;54.094;13.428;2023-08-20T08:12:09;102152.91;;;22.57;80.12
46045;BME280;31781;54.094;13.428;2023-08-20T08:14:10;102149.59;;;22.60;80.77
46045;BME280;31781;54.094;13.428;2023-08-20T08:16:13;102138.00;;;22.63;79.85
46045;BME280;31781;54.094;13.428;2023-08-20T08:18:15;102146.88;;;22.65;79.88
46045;BME280;31781;54.094;13.428;2023-08-20T08:20:17;102154.13;;;22.66;79.33
46045;BME280;31781;54.094;13.428;2023-08-20T08:22:19;102156.69;;;22.68;79.46
46045;BME280;31781;54.094;13.428;2023-08-20T08:24:21;102157.25;;;22.70;80.03
46045;BME280;31781;54.094;13.428;2023-08-20T08:26:22;102158.09;;;22.70;79.05
46045;BME280;31781;54.094;13.428;2023-08-20T08:28:25;102155.56;;;22.69;78.43
46045;BME280;31781;54.094;13.428;2023-08-20T08:30:27;102159.69;;;22.66;78.37
46045;BME280;31781;54.094;13.428;2023-08-20T08:32:30;102155.84;;;22.67;78.80
46045;BME280;31781;54.094;13.428;2023-08-20T08:34:31;102154.97;;;22.67;nan
46045;BME280;31781;54.094;13.428;2023-08-20T08:36:33;102154.75;;;22.68;78.75
46045;BME280;31781;54.094;13.428;2023-08-20T08:38:35;102150.88;;;22.69;78.23
46045;BME280;31781;54.094;13.428;2023-08-20T08:40:38;102150.63;;;22.71;78.96
46045;BME280;31781;54.094;13.428;2023-08-20T08:42:42;102155.66;;;22.74;78.26
46045;BME280;31781;54.094;13.428;2023-08-20T08:44:43;102172.38;;;22.79;77.81
46045;BME280;31781;54.094;13.428;2023-08-20T08:46:49;102169.94;;;22.83;78.08
46045;BME280;31781;54.094;13.428;2023-08-20T08:48:52;102175.22;;;22.84;77.21
46045;BME280;31781;54.094;13.428;2023-08-20T08:50:54;102177.75;;;22.86;77.66
46045;BME280;31781;54.094;13.428;2023-08-20T08:52:57;102180.28;;;22.87;77.68
46045;BME280;31781;54.094;13.428;2023-08-20T08:54:59;102185.84;;;22.87;76.62
46045;BME280;31781;54.094;13.428;2023-08-20T08:57:02;102180.00;;;22.89;76.80
46045;BME280;31781;54.094;13.428;2023-08-20T08:59:03;102181.69;;;22.90;76.13
46045;BME280;31781;54.094;13.428;2023-08-20T09:01:05;102180.34;;;22.92;76.90
46045;BME280;31781;54.094;13.428;2023-08-20T09:03:07;102186.72;;;22.93;76.76
46045;BME280;31781;54.094;13.428;2023-08-20T09:05:12;102189.00;;;22.96;77.02
46045;BME280;31781;54.094;13.428;2023-08-20T09:07:15;102192.03;;;22.94;76.46
46045;BME280;31781;54.094;13.428;2023-08-20T09:09:19;102189.84;;;22.96;76.27
46045;BME280;31781;54.094;13.428;2023-08-20T09:11:21;102204.31;;;22.98;75.33
46045;BME280;31781;54.094;13.428;2023-08-20T09:13:23;102201.53;;;22.98;75.71
46045;BME280;31781;54.094;13.428;2023-08-20T09:15:31;102205.72;;;23.01;75.81
46045;BME280;31781;54.094;13.428;2023-08-20T09:17:35;102218.75;;;23.00;75.84
46045;BME280;31781;54.094;13.428;2023-08-20T09:19:37;102226.84;;;23.02;75.21
46045;BME280;31781;54.094;13.428;2023-08-20T09:21:45;102226.00;;;23.01;74.53
46045;BME280;31781;54.094;13.428;2023-08-20T09:23:47;102215.13;;;23.00;73.75
46045;BME280;31781;54.094;13.428;2023-08-20T09:25:48;102221.78;;;22.99;74.37
46045;BME280;31781;54.094;13.428;2023-08-20T09:27:50;102213.72;;;22.97;74.40
46045;BME280;31781;54.094;13.428;2023-08-20T09:29:54;102218.44;;;22.97;74.57
46045;BME280;31781;54.094;13.428;2023-08-20T09:32:00;102217.59;;;22.96;74.01
46045;BME280;31781;54.094;13.428;2023-08-20T09:34:02;102218.94;;;22.94;74.48
46045;BME280;31781;54.094;13.428;2023-08-20T09:36:04;102220.03;;;22.93;73.50
46045;BME280;31781;54.094;13.428;2023-08-20T09:38:07;102220.03;;;22.93;74.19
46045;BME280;31781;54.094;13.428;2023-08-20T09:40:10;102221.13;;;22.92;73.66
46045;BME280;31781;54.094;13.428;2023-08-20T09:42:13;102217.25;;;22.93;74.05
46045;BME280;31781;54.094;13.428;2023-08-20T09:44:16;102214.25;;;22.94;73.86
46045;BME280;31781;54.094;13.428;2023-08-20T09:46:19;102213.13;;;22.95;73.64
46045;BME280;31781;54.094;13.428;2023-08-20T09:48:24;102209.03;;;22.98;73.48
46045;BME280;31781;54.094;13.428;2023-08-20T09:50:29;102214.56;;;22.98;73.03
46045;BME280;31781;54.094;13.428;2023-08-20T09:52:38;102207.09;;;22.98;72.65
46045;BME280;31781;54.094;13.428;2023-08-20T09:54:51;102217.69;;;23.01;72.44
46045;BME280;31781;54.094;13.428;2023-08-20T09:57:00;102207.66;;;23.00;71.97
46045;BME280;31781;54.094;13.428;2023-08-20T09:59:03;102218.75;;;23.00;70.84
46045;BME280;31781;54.094;13.428;2023-08-20T10:01:07;102209.06;;;23.03;71.88
46045;BME280;31781;54.094;13.428;2023-08-20T10:03:09;102220.25;;;23.08;70.83
46045;BME280;31781;54.094;13.428;2023-08-20T10:05:12;102233.38;;;23.12;70.35
46045;BME280;31781;54.094;13.428;2023-08-20T10:07:14;102239.25;;;23.16;69.88
46045;BME280;31781;54.094;13.428;2023-08-20T10:09:16;102236.81;;;23.19;69.85
46045;BME280;31781;54.094;13.428;2023-08-20T10:11:20;102243.25;;;23.25;69.79
46045;BME280;31781;54.094;13.428;2023-08-20T10:13:22;102247.47;;;23.27;69.50
46045;BME280;31781;54.094;13.428;2023-08-20T10:15:25;102248.88;;;23.30;68.94
46045;BME280;31781;54.094;13.428;2023-08-20T10:17:29;102247.00;;;23.36;68.76
46045;BME280;31781;54.094;13.428;2023-08-20T10:19:31;102251.22;;;23.38;67.47
46045;BME280;31781;54.094;13.428;2023-08-20T10:21:33;102254.34;;;23.42;67.60
46045;BME280;31781;54.094;13.428;2023-08-20T10:23:37;102255.75;;;23.44;67.38
46045;BME280;31781;54.094;13.428;2023-08-20T10:25:42;102257.78;;;23.49;66.14
46045;BME280;31781;54.094;13.428;2023-08-20T10:27:45;102265.59;;;23.52;65.59
46045;BME280;31781;54.094;13.428;2023-08-20T10:29:47;102270.63;;;23.55;65.53
46045;BME280;31781;54.094;13.428;2023-08-20T10:31:48;102268.69;;;23.55;65.44
46045;BME280;31781;54.094;13.428;2023-08-20T10:33:56;102269.53;;;23.56;65.35
46045;BME280;31781;54.094;13.428;2023-08-20T10:36:07;102262.88;;;23.57;65.74
46045;BME280;31781;54.094;13.428;2023-08-20T10:38:12;102271.22;;;23.57;65.19
46045;BME280;31781;54.094;13.428;2023-08-20T10:40:48;102268.00;;;23.65;67.17
46045;BME280;31781;54.094;13.428;2023-08-20T10:43:01;102281.63;;;23.66;66.77